Time;durP1;ratioP1;P1;durP2;ratioP2;P2;SDS_P1;SDS_P2;PMS_P1;PMS_P2;Temp;Humidity;BMP_temperature;BMP_pressure;BME280_temperature;BME280_humidity;BME280_pressure;Samples;Min_cycle;Max_cycle;Signal;HPM_P1;HPM_P2
2021/10/10 00:01:26;;;;;;;15.17;9.40;;;12.50;95.70;;;;;;6218944;23;20850;-84
2021/10/10 00:03:53;;;;;;;9.83;8.30;;;12.50;95.80;;;;;;6219573;23;20417;-85
2021/10/10 00:06:19;;;;;;;12.00;8.90;;;12.40;95.80;;;;;;6218768;23;21126;-83
2021/10/10 00:08:47;;;;;;;9.60;8.20;;;12.30;96.10;;;;;;6246046;23;20401;-83
2021/10/10 00:11:15;;;;;;;13.20;9.30;;;12.30;96.30;;;;;;6218529;23;21011;-84
2021/10/10 00:13:42;;;;;;;10.90;8.90;;;12.30;96.30;;;;;;6217758;23;20943;-87
2021/10/10 00:16:09;;;;;;;13.10;9.00;;;12.30;96.70;;;;;;6242440;23;20405;-85
2021/10/10 00:18:36;;;;;;;12.87;8.97;;;12.40;97.00;;;;;;6244788;23;20416;-85
2021/10/10 00:21:04;;;;;;;10.47;8.83;;;12.30;97.30;;;;;;6227775;23;20823;-86
2021/10/10 00:23:31;;;;;;;9.40;8.40;;;12.20;97.20;;;;;;6225866;23;20409;-85
2021/10/10 00:25:58;;;;;;;14.47;8.17;;;12.10;97.30;;;;;;6244243;23;20415;-84
2021/10/10 00:28:24;;;;;;;11.73;7.90;;;12.10;97.30;;;;;;6220648;23;20417;-86
2021/10/10 00:30:51;;;;;;;10.00;7.73;;;12.10;96.70;;;;;;6220003;23;20415;-87
2021/10/10 00:33:18;;;;;;;12.90;9.00;;;11.90;96.90;;;;;;6244971;23;20455;-86
2021/10/10 00:35:45;;;;;;;9.43;8.40;;;11.80;97.50;;;;;;6219309;23;20716;-85
2021/10/10 00:38:11;;;;;;;11.57;8.40;;;11.80;97.80;;;;;;6219108;23;20897;-86
2021/10/10 00:40:38;;;;;;;12.40;10.00;;;12.10;97.60;;;;;;6218792;23;20413;-85
2021/10/10 00:43:06;;;;;;;10.53;8.27;;;12.10;97.40;;;;;;6245108;23;20492;-86
2021/10/10 00:45:33;;;;;;;11.17;8.33;;;12.20;97.50;;;;;;6251030;23;20404;-86
2021/10/10 00:48:01;;;;;;;11.50;9.00;;;12.20;96.60;;;;;;6251329;23;20811;-85
2021/10/10 00:50:29;;;;;;;14.43;9.90;;;12.10;96.60;;;;;;6227083;23;20996;-86
2021/10/10 00:52:58;;;;;;;8.47;7.60;;;12.00;96.70;;;;;;6251307;22;20508;-85
2021/10/10 00:55:26;;;;;;;10.40;8.50;;;12.00;97.20;;;;;;6255239;23;20414;-84
2021/10/10 00:57:54;;;;;;;10.97;9.33;;;12.10;96.90;;;;;;6230681;23;20511;-85
2021/10/10 01:00:21;;;;;;;14.40;8.67;;;12.00;96.90;;;;;;6238048;23;21064;-84
2021/10/10 01:02:56;;;;;;;9.03;8.23;;;12.00;96.70;;;;;;6254528;22;20452;-83
2021/10/10 01:05:24;;;;;;;9.50;8.37;;;11.80;97.10;;;;;;6269794;23;20452;-85
2021/10/10 01:08:06;;;;;;;10.90;8.40;;;11.70;97.00;;;;;;6271346;22;20396;-85
2021/10/10 01:10:33;;;;;;;12.87;8.77;;;11.90;96.70;;;;;;6296650;22;20509;-88
2021/10/10 01:13:07;;;;;;;13.00;9.00;;;11.90;96.40;;;;;;6271037;22;20440;-88
2021/10/10 01:15:34;;;;;;;11.30;8.70;;;11.80;96.60;;;;;;6247065;22;20424;-87
2021/10/10 01:18:29;;;;;;;9.03;8.10;;;12.00;96.20;;;;;;6209222;22;20463;-85
2021/10/10 01:20:56;;;;;;;16.37;8.60;;;12.00;96.10;;;;;;6245067;22;20415;-88
2021/10/10 01:23:29;;;;;;;9.20;7.60;;;12.00;95.80;;;;;;6268173;22;20426;-85
2021/10/10 01:25:56;;;;;;;13.63;11.20;;;11.80;95.70;;;;;;6270695;22;20423;-85
2021/10/10 01:28:23;;;;;;;13.57;8.50;;;11.60;96.00;;;;;;6263572;23;20436;-86
2021/10/10 01:30:52;;;;;;;11.17;8.23;;;11.50;96.30;;;;;;6228485;22;20483;-84
2021/10/10 01:33:20;;;;;;;10.80;8.37;;;11.40;96.60;;;;;;6227170;23;20459;-85
2021/10/10 01:35:49;;;;;;;10.43;8.53;;;11.50;96.70;;;;;;6227646;23;21165;-84
2021/10/10 01:38:21;;;;;;;12.03;9.50;;;11.50;96.40;;;;;;6227563;23;20809;-86
2021/10/10 01:43:30;;;;;;;10.50;9.40;;;11.50;96.60;;;;;;6290138;22;20503;-84
2021/10/10 01:46:15;;;;;;;13.13;8.40;;;11.60;96.40;;;;;;6243968;22;20406;-86
2021/10/10 01:48:48;;;;;;;10.50;9.40;;;11.60;95.90;;;;;;6288051;22;20405;-87
2021/10/10 01:51:30;;;;;;;11.53;8.77;;;11.40;96.10;;;;;;6278778;22;20496;-85
2021/10/10 01:54:00;;;;;;;10.57;9.20;;;11.40;96.30;;;;;;6256738;23;21121;-86
2021/10/10 01:56:28;;;;;;;11.27;9.10;;;11.20;96.60;;;;;;6255254;23;20411;-86
2021/10/10 01:58:55;;;;;;;14.90;9.60;;;11.20;96.90;;;;;;6229539;23;20404;-86
2021/10/10 02:01:22;;;;;;;9.60;8.60;;;11.20;97.20;;;;;;6228906;23;20435;-86
2021/10/10 02:03:52;;;;;;;14.00;9.40;;;11.10;97.40;;;;;;6229311;23;20414;-85
2021/10/10 02:06:21;;;;;;;10.70;8.53;;;11.00;97.60;;;;;;6253531;23;20408;-86
2021/10/10 02:08:47;;;;;;;11.53;10.10;;;11.00;97.80;;;;;;6229054;23;20487;-87
2021/10/10 02:11:15;;;;;;;11.00;8.60;;;11.00;98.00;;;;;;6226860;23;20444;-85
2021/10/10 02:13:42;;;;;;;12.63;8.70;;;11.10;98.00;;;;;;6224894;23;20497;-84
2021/10/10 02:16:09;;;;;;;13.33;9.67;;;11.30;97.80;;;;;;6230418;23;21089;-86
2021/10/10 02:18:36;;;;;;;9.30;7.70;;;11.30;97.50;;;;;;6228443;23;20433;-84
2021/10/10 02:21:03;;;;;;;11.07;9.27;;;11.30;97.30;;;;;;6226633;22;20420;-89
2021/10/10 02:23:31;;;;;;;12.63;9.53;;;11.30;97.50;;;;;;6227966;23;20416;-87
2021/10/10 02:25:59;;;;;;;12.17;9.47;;;11.30;96.90;;;;;;6228587;23;20404;-85
2021/10/10 02:28:35;;;;;;;9.80;8.80;;;11.20;96.80;;;;;;6229452;23;20483;-86
2021/10/10 02:31:02;;;;;;;12.47;8.87;;;11.20;97.20;;;;;;6261817;22;20438;-85
2021/10/10 02:33:29;;;;;;;13.20;9.73;;;11.20;97.40;;;;;;6285888;22;20481;-86
2021/10/10 02:35:56;;;;;;;9.80;8.80;;;11.10;97.50;;;;;;6283829;22;20433;-86
2021/10/10 02:38:23;;;;;;;12.17;9.50;;;11.20;97.70;;;;;;6236901;22;21017;-85
2021/10/10 02:40:49;;;;;;;12.33;9.03;;;11.30;97.20;;;;;;6284605;22;20403;-85
2021/10/10 02:43:16;;;;;;;8.83;7.90;;;11.30;96.60;;;;;;6230463;23;20434;-86
2021/10/10 02:45:43;;;;;;;12.10;9.63;;;11.30;96.80;;;;;;6255064;23;20416;-87
2021/10/10 02:48:10;;;;;;;12.30;9.33;;;11.20;97.10;;;;;;6230941;23;20473;-86
2021/10/10 02:50:37;;;;;;;10.37;8.63;;;11.20;97.40;;;;;;6256976;23;20400;-87
2021/10/10 02:53:04;;;;;;;11.87;10.07;;;11.00;97.60;;;;;;6205509;23;20453;-86
2021/10/10 02:55:31;;;;;;;13.77;8.83;;;11.00;97.80;;;;;;6229330;23;20921;-86
2021/10/10 02:57:59;;;;;;;11.70;9.50;;;11.00;97.40;;;;;;6230448;23;20427;-84
2021/10/10 03:00:27;;;;;;;12.63;10.27;;;10.90;97.60;;;;;;6230029;23;20889;-85
2021/10/10 03:02:53;;;;;;;10.70;9.03;;;10.80;98.40;;;;;;6229534;23;20498;-85
2021/10/10 03:05:20;;;;;;;10.40;9.27;;;10.70;98.40;;;;;;6230345;23;20404;-87
2021/10/10 03:07:47;;;;;;;12.50;10.10;;;10.90;98.50;;;;;;6230271;23;20444;-85
2021/10/10 03:10:14;;;;;;;10.00;8.60;;;10.90;98.20;;;;;;6228499;23;20968;-84
2021/10/10 03:12:42;;;;;;;13.00;9.60;;;10.80;97.90;;;;;;6257051;22;20943;-86
2021/10/10 03:15:09;;;;;;;10.60;9.40;;;10.70;98.20;;;;;;6230780;23;20419;-85
2021/10/10 03:17:36;;;;;;;12.00;9.73;;;10.80;98.40;;;;;;6230951;23;20423;-86
2021/10/10 03:20:05;;;;;;;13.17;9.77;;;10.70;98.20;;;;;;6229540;23;20439;-86
2021/10/10 03:22:31;;;;;;;11.83;9.70;;;10.70;98.00;;;;;;6221649;22;20456;-86
2021/10/10 03:24:59;;;;;;;14.70;10.20;;;10.60;98.20;;;;;;6229682;23;20446;-85
2021/10/10 03:27:26;;;;;;;11.57;9.20;;;10.50;98.20;;;;;;6231202;23;20407;-87
2021/10/10 03:29:54;;;;;;;10.27;9.17;;;10.40;98.40;;;;;;6256847;23;20477;-87
2021/10/10 03:32:21;;;;;;;13.00;9.40;;;10.40;98.60;;;;;;6231010;23;20821;-87
2021/10/10 03:34:49;;;;;;;11.70;8.70;;;10.30;98.60;;;;;;6236940;23;20534;-90
2021/10/10 03:37:16;;;;;;;11.57;9.20;;;10.30;98.80;;;;;;6243239;23;20418;-89
2021/10/10 03:39:45;;;;;;;13.47;9.90;;;10.30;98.90;;;;;;6242590;23;20439;-87
2021/10/10 03:42:14;;;;;;;12.50;9.80;;;10.30;98.70;;;;;;6242375;23;20416;-86
2021/10/10 03:44:41;;;;;;;10.40;9.07;;;10.40;98.40;;;;;;6240076;23;20491;-89
2021/10/10 03:47:09;;;;;;;12.13;8.90;;;10.50;98.30;;;;;;6237726;23;20404;-87
2021/10/10 03:49:36;;;;;;;10.70;9.00;;;10.40;98.40;;;;;;6231233;23;20775;-86
2021/10/10 03:52:03;;;;;;;11.23;10.07;;;10.30;98.60;;;;;;6231555;23;20438;-88
2021/10/10 03:57:21;;;;;;;13.97;9.80;;;10.00;98.80;;;;;;6256777;23;20400;-87
2021/10/10 03:59:57;;;;;;;11.63;9.80;;;10.00;99.20;;;;;;6230726;23;20408;-86
2021/10/10 04:02:24;;;;;;;10.70;9.00;;;9.90;99.90;;;;;;6231072;23;20428;-87
2021/10/10 04:04:52;;;;;;;13.53;9.60;;;10.00;99.90;;;;;;6230144;23;20420;-85
2021/10/10 04:07:21;;;;;;;11.10;9.70;;;10.10;99.60;;;;;;6230536;23;20400;-86
2021/10/10 04:09:52;;;;;;;11.27;9.63;;;10.00;99.70;;;;;;6230059;23;20416;-86
2021/10/10 04:12:19;;;;;;;10.50;8.70;;;10.10;99.80;;;;;;6228582;23;20795;-86
2021/10/10 04:14:53;;;;;;;11.33;9.67;;;10.30;99.60;;;;;;6254293;23;20523;-87
2021/10/10 04:17:26;;;;;;;11.40;9.47;;;10.20;99.50;;;;;;6256138;23;20424;-85
2021/10/10 04:19:56;;;;;;;11.57;9.83;;;10.20;99.80;;;;;;6255408;23;20412;-84
2021/10/10 04:22:24;;;;;;;12.40;9.80;;;10.10;99.90;;;;;;6222004;23;20500;-86
2021/10/10 04:24:56;;;;;;;11.00;8.37;;;10.20;99.90;;;;;;6202026;23;20408;-85
2021/10/10 04:27:25;;;;;;;14.00;10.27;;;10.20;99.90;;;;;;6221986;23;20405;-87
2021/10/10 04:29:54;;;;;;;17.10;10.70;;;10.20;99.90;;;;;;6225281;23;20416;-86
2021/10/10 04:32:21;;;;;;;11.17;9.20;;;10.00;99.90;;;;;;6225225;23;20425;-86
2021/10/10 04:34:48;;;;;;;14.80;10.37;;;10.00;99.90;;;;;;6223684;23;20475;-84
2021/10/10 04:37:16;;;;;;;12.40;10.40;;;9.90;99.90;;;;;;6225293;23;20473;-84
2021/10/10 04:39:43;;;;;;;11.20;8.67;;;9.90;99.90;;;;;;6224575;23;20507;-84
2021/10/10 04:42:10;;;;;;;13.37;9.50;;;9.80;99.90;;;;;;6227191;23;20897;-85
2021/10/10 04:44:37;;;;;;;13.60;10.23;;;9.80;99.90;;;;;;6236912;23;20473;-88
2021/10/10 04:47:05;;;;;;;12.27;9.40;;;9.60;99.90;;;;;;6241920;23;20401;-88
2021/10/10 04:49:33;;;;;;;16.23;10.60;;;9.50;99.90;;;;;;6242637;23;20439;-88
2021/10/10 04:52:03;;;;;;;14.83;10.33;;;9.30;99.90;;;;;;6242083;23;20468;-87
2021/10/10 04:54:35;;;;;;;16.70;10.47;;;9.20;99.90;;;;;;6239289;23;20428;-86
2021/10/10 04:57:05;;;;;;;15.20;10.57;;;9.10;99.90;;;;;;6226992;23;20927;-85
2021/10/10 04:59:33;;;;;;;14.30;10.43;;;9.20;99.90;;;;;;6229043;23;20408;-85
2021/10/10 05:02:00;;;;;;;14.33;10.90;;;9.40;99.90;;;;;;6235538;23;20448;-90
2021/10/10 05:04:27;;;;;;;13.23;10.30;;;9.30;99.90;;;;;;6241875;23;20405;-86
2021/10/10 05:06:54;;;;;;;16.10;10.93;;;9.30;99.90;;;;;;6253454;22;20440;-91
2021/10/10 05:09:21;;;;;;;12.00;9.83;;;9.20;99.90;;;;;;6223135;23;20475;-89
2021/10/10 05:11:47;;;;;;;11.30;9.60;;;9.10;99.90;;;;;;6248641;22;20420;-90
2021/10/10 05:14:14;;;;;;;13.90;10.70;;;9.30;99.90;;;;;;6273783;22;20480;-89
2021/10/10 05:16:41;;;;;;;13.70;9.97;;;9.30;99.90;;;;;;6274164;22;20463;-87
2021/10/10 05:19:08;;;;;;;15.53;11.17;;;9.30;99.90;;;;;;6235944;23;20424;-86
2021/10/10 05:21:34;;;;;;;15.60;11.60;;;9.30;99.90;;;;;;6256517;22;20775;-86
2021/10/10 05:24:01;;;;;;;14.97;11.00;;;9.20;99.90;;;;;;6229625;23;20471;-85
2021/10/10 05:26:28;;;;;;;15.50;9.67;;;9.20;99.90;;;;;;6256237;23;20412;-85
2021/10/10 05:28:54;;;;;;;13.47;10.90;;;9.30;99.90;;;;;;6230075;23;20397;-86
2021/10/10 05:31:24;;;;;;;13.30;9.87;;;9.20;99.90;;;;;;6228057;23;20446;-85
2021/10/10 05:33:51;;;;;;;17.50;11.60;;;9.10;99.90;;;;;;6229746;23;20447;-87
2021/10/10 05:36:20;;;;;;;13.70;10.80;;;9.00;99.90;;;;;;6229316;23;20396;-88
2021/10/10 05:39:01;;;;;;;12.53;9.77;;;9.10;99.90;;;;;;6217628;23;20462;-86
2021/10/10 05:41:28;;;;;;;16.33;12.10;;;9.20;99.90;;;;;;6228025;23;20439;-86
2021/10/10 05:43:57;;;;;;;14.23;12.63;;;9.10;99.90;;;;;;6255885;23;20480;-87
2021/10/10 05:46:24;;;;;;;11.73;9.70;;;9.10;99.90;;;;;;6222695;23;20408;-88
2021/10/10 05:48:51;;;;;;;11.63;10.43;;;9.20;99.90;;;;;;6222036;23;20408;-87
2021/10/10 05:51:18;;;;;;;14.30;10.90;;;9.20;99.90;;;;;;6222234;23;20504;-86
2021/10/10 05:53:45;;;;;;;12.20;9.80;;;9.10;99.90;;;;;;6247719;23;20446;-88
2021/10/10 05:56:12;;;;;;;15.07;10.77;;;9.20;99.90;;;;;;6219180;23;20465;-86
2021/10/10 05:58:43;;;;;;;12.47;9.83;;;9.30;99.90;;;;;;6220518;23;20412;-88
2021/10/10 06:01:10;;;;;;;14.70;11.20;;;9.40;99.90;;;;;;6218804;23;20431;-85
2021/10/10 06:03:37;;;;;;;12.57;9.47;;;9.20;99.90;;;;;;6219717;23;20444;-85
2021/10/10 06:06:04;;;;;;;11.30;8.20;;;9.20;99.90;;;;;;6219146;23;20519;-86
2021/10/10 06:08:31;;;;;;;13.30;10.77;;;9.20;99.90;;;;;;6246055;23;20422;-85
2021/10/10 06:10:58;;;;;;;12.70;9.90;;;9.40;99.90;;;;;;6219292;22;20409;-86
2021/10/10 06:13:43;;;;;;;11.97;10.70;;;9.40;99.90;;;;;;6226117;23;20518;-87
2021/10/10 06:16:10;;;;;;;15.60;10.80;;;9.20;99.90;;;;;;6221755;23;20416;-84
2021/10/10 06:18:37;;;;;;;15.00;11.50;;;9.30;99.90;;;;;;6222713;23;20411;-86
2021/10/10 06:21:04;;;;;;;20.30;10.73;;;9.50;99.90;;;;;;6223423;22;20435;-86
2021/10/10 06:23:31;;;;;;;12.60;10.70;;;9.60;99.90;;;;;;6223551;23;20411;-88
2021/10/10 06:25:58;;;;;;;12.77;10.20;;;9.60;99.90;;;;;;6223084;23;20411;-85
2021/10/10 06:28:24;;;;;;;12.00;9.97;;;9.60;99.90;;;;;;6242524;23;20463;-90
2021/10/10 06:33:21;;;;;;;13.40;10.17;;;9.70;99.90;;;;;;6295338;22;20445;-90
2021/10/10 06:35:48;;;;;;;20.40;10.50;;;9.70;99.90;;;;;;6290557;22;20403;-89
2021/10/10 06:38:15;;;;;;;13.40;10.93;;;9.70;99.90;;;;;;6284438;22;20435;-86
2021/10/10 06:40:41;;;;;;;13.13;10.03;;;9.70;99.90;;;;;;6282885;22;20434;-88
2021/10/10 06:43:08;;;;;;;15.10;12.00;;;9.60;99.90;;;;;;6228341;23;20400;-88
2021/10/10 06:45:35;;;;;;;12.10;10.30;;;9.50;99.90;;;;;;6258529;23;20403;-88
2021/10/10 06:48:02;;;;;;;15.00;11.10;;;9.40;99.90;;;;;;6234451;23;20461;-86
2021/10/10 06:50:29;;;;;;;15.00;11.90;;;9.30;99.90;;;;;;6231720;23;20505;-87
2021/10/10 06:52:56;;;;;;;13.50;10.40;;;9.40;99.90;;;;;;6217787;22;20455;-86
2021/10/10 06:55:22;;;;;;;10.97;9.50;;;9.60;99.90;;;;;;6253470;23;20440;-85
2021/10/10 06:57:49;;;;;;;14.67;11.00;;;9.50;99.90;;;;;;6253651;23;20808;-88
2021/10/10 07:00:16;;;;;;;12.97;9.50;;;9.70;99.90;;;;;;6225947;23;20408;-87
2021/10/10 07:02:43;;;;;;;14.47;11.13;;;9.70;99.90;;;;;;6224645;23;20427;-88
2021/10/10 07:05:41;;;;;;;11.80;9.57;;;9.90;99.90;;;;;;6067676;23;20477;-85
2021/10/10 07:08:07;;;;;;;12.83;10.97;;;12.40;99.40;;;;;;6052073;23;20428;-85
2021/10/10 07:13:49;;;;;;;14.23;9.87;;;16.00;90.10;;;;;;6250898;23;20412;-83
2021/10/10 07:16:26;;;;;;;11.93;9.73;;;16.60;83.20;;;;;;6250970;23;20404;-86
2021/10/10 07:19:02;;;;;;;14.10;10.10;;;16.30;83.20;;;;;;6248171;23;20412;-87
2021/10/10 07:21:56;;;;;;;11.20;9.90;;;17.20;81.50;;;;;;6259275;22;20491;-85
2021/10/10 07:27:18;;;;;;;11.77;9.97;;;20.20;69.50;;;;;;6283364;22;20395;-85
2021/10/10 07:29:45;;;;;;;11.37;10.17;;;20.70;64.20;;;;;;6279918;22;20411;-85
2021/10/10 07:32:47;;;;;;;14.80;10.30;;;19.80;64.20;;;;;;6279573;22;20427;-86
2021/10/10 07:35:13;;;;;;;13.30;11.83;;;18.30;67.20;;;;;;6255441;22;20453;-87
2021/10/10 07:37:40;;;;;;;16.20;11.70;;;16.20;72.30;;;;;;6297297;22;20403;-85
2021/10/10 07:40:35;;;;;;;11.47;10.30;;;14.70;79.20;;;;;;6299508;22;20412;-82
2021/10/10 07:43:16;;;;;;;14.27;11.17;;;13.40;86.20;;;;;;6299455;22;20423;-88
2021/10/10 07:45:45;;;;;;;12.17;10.43;;;12.90;91.50;;;;;;6294754;22;20458;-85
2021/10/10 07:48:26;;;;;;;13.30;12.00;;;13.40;91.90;;;;;;6284309;22;20411;-84
2021/10/10 07:53:44;;;;;;;15.33;11.33;;;13.40;90.10;;;;;;6262173;22;20489;-84
2021/10/10 07:56:11;;;;;;;14.17;10.33;;;12.40;91.70;;;;;;6282473;22;20399;-83
2021/10/10 07:58:44;;;;;;;16.40;11.60;;;11.80;93.30;;;;;;6258017;22;20423;-84
2021/10/10 08:01:11;;;;;;;15.40;11.00;;;11.40;94.80;;;;;;6279707;22;20938;-86
2021/10/10 08:03:53;;;;;;;11.43;9.40;;;11.00;95.80;;;;;;6225062;23;20460;-84
2021/10/10 08:06:20;;;;;;;15.27;11.93;;;11.00;96.70;;;;;;6225941;23;20468;-85
2021/10/10 08:08:46;;;;;;;14.33;10.90;;;10.90;97.00;;;;;;6226358;23;20463;-85
2021/10/10 08:11:16;;;;;;;14.10;10.80;;;10.90;97.60;;;;;;6237967;23;20440;-88
2021/10/10 08:13:43;;;;;;;12.63;11.03;;;11.00;98.00;;;;;;6244634;22;20428;-88
2021/10/10 08:16:10;;;;;;;16.43;13.20;;;11.10;98.00;;;;;;6268996;22;20440;-87
2021/10/10 08:18:44;;;;;;;15.23;11.60;;;11.20;97.80;;;;;;6243117;23;20405;-87
2021/10/10 08:21:12;;;;;;;14.90;12.10;;;11.20;97.80;;;;;;6269182;22;20427;-88
2021/10/10 08:23:38;;;;;;;14.27;10.90;;;11.20;97.60;;;;;;6269767;22;20414;-90
2021/10/10 08:26:29;;;;;;;15.37;12.80;;;11.10;98.30;;;;;;6170725;22;20419;-90
2021/10/10 08:29:35;;;;;;;16.97;12.60;;;11.00;98.50;;;;;;6269769;22;20431;-88
2021/10/10 08:32:23;;;;;;;17.07;12.70;;;11.30;98.40;;;;;;6140863;23;20443;-85
2021/10/10 08:35:10;;;;;;;14.77;12.13;;;11.50;98.30;;;;;;6146127;23;20439;-89
2021/10/10 08:37:37;;;;;;;13.03;11.60;;;11.60;98.00;;;;;;6148184;23;20435;-86
2021/10/10 08:40:08;;;;;;;12.87;11.10;;;11.80;97.80;;;;;;6147918;23;20419;-89
2021/10/10 08:42:36;;;;;;;16.40;11.40;;;12.00;97.40;;;;;;6183547;22;20501;-89
2021/10/10 08:45:10;;;;;;;14.10;12.07;;;12.00;97.00;;;;;;6243858;22;20417;-84
2021/10/10 08:47:47;;;;;;;13.00;11.13;;;12.00;96.70;;;;;;6245252;22;20408;-88
2021/10/10 08:50:24;;;;;;;13.30;11.60;;;12.10;96.90;;;;;;6244222;22;20507;-89
2021/10/10 08:52:58;;;;;;;13.30;11.60;;;12.00;97.00;;;;;;6270857;22;20427;-87
2021/10/10 08:55:27;;;;;;;15.33;12.20;;;12.00;97.20;;;;;;6244857;23;20518;-86
2021/10/10 08:57:55;;;;;;;18.27;12.50;;;12.20;97.00;;;;;;6243869;23;20419;-83
2021/10/10 09:00:36;;;;;;;14.80;11.90;;;12.20;96.70;;;;;;6245948;22;20407;-87
2021/10/10 09:03:11;;;;;;;13.27;11.27;;;12.30;96.80;;;;;;6246293;22;20428;-85
2021/10/10 09:06:10;;;;;;;16.87;12.90;;;12.30;96.60;;;;;;6243628;23;20412;-86
2021/10/10 09:08:37;;;;;;;13.87;11.43;;;12.20;96.80;;;;;;6258665;23;20415;-85
2021/10/10 09:11:10;;;;;;;14.00;11.47;;;12.20;97.10;;;;;;6258984;22;20507;-86
2021/10/10 09:14:22;;;;;;;14.73;11.50;;;12.30;96.80;;;;;;6265081;22;20403;-86
2021/10/10 09:16:49;;;;;;;12.63;11.30;;;12.40;96.80;;;;;;6288740;22;20916;-85
2021/10/10 09:19:31;;;;;;;14.87;11.07;;;12.30;96.80;;;;;;6293009;22;20470;-85
2021/10/10 09:21:59;;;;;;;13.20;11.10;;;12.00;97.10;;;;;;6281531;22;20453;-87
2021/10/10 09:24:27;;;;;;;16.20;12.60;;;12.30;97.20;;;;;;6265313;22;20468;-85
2021/10/10 09:26:54;;;;;;;17.57;11.90;;;12.50;96.80;;;;;;6292491;22;20414;-88
2021/10/10 09:29:51;;;;;;;15.90;13.10;;;12.50;96.90;;;;;;6301529;22;20395;-85
2021/10/10 09:32:20;;;;;;;13.23;11.53;;;12.70;96.70;;;;;;6251055;22;20432;-86
2021/10/10 09:34:49;;;;;;;16.40;12.87;;;12.70;97.00;;;;;;6230546;23;20568;-86
2021/10/10 09:37:26;;;;;;;13.63;11.23;;;13.90;96.40;;;;;;6255411;23;20404;-87
2021/10/10 09:40:03;;;;;;;11.30;10.10;;;15.40;92.70;;;;;;6225772;23;20434;-86
2021/10/10 09:42:41;;;;;;;12.90;10.10;;;16.20;90.00;;;;;;6227534;23;20424;-85
2021/10/10 09:45:30;;;;;;;12.10;10.37;;;17.10;85.70;;;;;;6250694;23;20463;-85
2021/10/10 09:48:01;;;;;;;11.80;9.60;;;17.30;84.20;;;;;;6225398;23;20400;-87
2021/10/10 09:50:31;;;;;;;12.20;10.13;;;17.70;81.80;;;;;;6231115;23;20400;-88
2021/10/10 09:53:06;;;;;;;12.90;10.53;;;17.30;81.80;;;;;;6240498;23;20513;-86
2021/10/10 09:55:53;;;;;;;16.60;11.30;;;16.90;82.70;;;;;;6240769;23;20478;-86
2021/10/10 09:58:39;;;;;;;13.80;11.80;;;16.30;85.60;;;;;;6239911;23;20411;-88
2021/10/10 10:01:22;;;;;;;12.03;10.13;;;16.10;87.70;;;;;;6237228;22;20484;-86
2021/10/10 10:04:03;;;;;;;13.40;12.00;;;16.00;88.20;;;;;;6209290;23;20399;-85
2021/10/10 10:06:33;;;;;;;13.90;11.10;;;15.70;88.10;;;;;;6230830;23;20427;-86
2021/10/10 10:09:05;;;;;;;15.87;11.00;;;15.20;90.00;;;;;;6231390;23;20404;-87
2021/10/10 10:11:38;;;;;;;14.40;11.10;;;15.40;90.00;;;;;;6255254;22;20424;-85
2021/10/10 10:14:11;;;;;;;12.57;10.40;;;15.00;90.60;;;;;;6250720;23;20400;-87
2021/10/10 10:16:47;;;;;;;15.53;10.57;;;15.20;90.90;;;;;;6224134;23;20545;-86
2021/10/10 10:22:08;;;;;;;13.23;10.70;;;15.30;90.30;;;;;;6265448;22;20479;-89
2021/10/10 10:24:49;;;;;;;12.10;10.90;;;15.50;90.20;;;;;;6232836;23;20408;-86
2021/10/10 10:27:16;;;;;;;15.47;11.50;;;15.60;89.90;;;;;;6221384;23;20426;-85
2021/10/10 10:29:46;;;;;;;19.70;12.73;;;15.60;90.20;;;;;;6247901;23;20847;-88
2021/10/10 10:32:15;;;;;;;11.83;10.50;;;15.60;90.20;;;;;;6263678;22;20469;-86
2021/10/10 10:35:13;;;;;;;12.83;10.77;;;15.60;90.30;;;;;;6275082;22;20443;-88
2021/10/10 10:38:12;;;;;;;11.93;10.67;;;15.50;90.30;;;;;;6277191;22;20973;-85
2021/10/10 10:40:42;;;;;;;16.67;12.07;;;15.70;90.20;;;;;;6277266;22;20425;-85
2021/10/10 10:43:12;;;;;;;10.80;9.20;;;15.70;90.10;;;;;;6245131;22;20951;-87
2021/10/10 10:45:45;;;;;;;12.80;11.20;;;15.60;90.10;;;;;;6219214;23;20392;-84
2021/10/10 10:48:27;;;;;;;16.20;11.50;;;15.60;90.10;;;;;;6219868;23;20418;-84
2021/10/10 10:51:27;;;;;;;12.77;10.53;;;15.60;90.40;;;;;;6219311;22;20423;-86
2021/10/10 10:54:12;;;;;;;16.83;11.53;;;15.60;90.30;;;;;;6228920;22;20483;-90
2021/10/10 10:56:40;;;;;;;12.30;10.80;;;15.60;90.60;;;;;;6270693;22;20410;-91
2021/10/10 10:59:06;;;;;;;12.37;11.10;;;15.60;90.40;;;;;;6243876;23;20404;-86
2021/10/10 11:02:00;;;;;;;10.70;9.30;;;15.60;90.50;;;;;;6241407;23;20419;-86
2021/10/10 11:04:29;;;;;;;12.60;11.27;;;15.30;90.60;;;;;;6239267;23;20416;-86
2021/10/10 11:06:58;;;;;;;12.60;10.10;;;15.20;91.10;;;;;;6226367;23;20416;-85
2021/10/10 11:09:26;;;;;;;12.20;10.83;;;15.60;91.00;;;;;;6224690;23;20487;-87
2021/10/10 11:12:00;;;;;;;10.70;9.63;;;16.00;90.20;;;;;;6223609;23;20431;-87
2021/10/10 11:14:29;;;;;;;13.90;11.27;;;16.30;89.20;;;;;;6249107;23;20494;-86
2021/10/10 11:17:07;;;;;;;11.70;10.47;;;16.20;88.70;;;;;;6221103;23;20412;-87
2021/10/10 11:19:34;;;;;;;11.73;10.50;;;16.40;88.70;;;;;;6247287;23;20442;-84
2021/10/10 11:22:00;;;;;;;10.37;9.37;;;16.50;87.60;;;;;;6248827;22;20424;-86
2021/10/10 11:24:27;;;;;;;11.47;10.27;;;16.60;86.80;;;;;;6220529;23;20432;-84
2021/10/10 11:26:59;;;;;;;11.97;9.50;;;16.60;85.30;;;;;;6250628;23;20405;-88
2021/10/10 11:29:27;;;;;;;10.73;9.60;;;16.70;85.00;;;;;;6221534;23;20466;-85
2021/10/10 11:31:55;;;;;;;16.17;10.53;;;16.70;84.50;;;;;;6222903;23;20436;-87
2021/10/10 11:34:25;;;;;;;12.20;9.83;;;16.70;84.50;;;;;;6223898;23;20491;-87
2021/10/10 11:36:54;;;;;;;16.60;10.73;;;16.60;85.00;;;;;;6251328;23;20479;-87
2021/10/10 11:39:23;;;;;;;13.43;10.37;;;16.60;85.20;;;;;;6224560;23;20420;-85
2021/10/10 11:42:04;;;;;;;15.60;10.10;;;16.50;84.30;;;;;;6222971;23;20432;-85
2021/10/10 11:44:45;;;;;;;10.73;9.63;;;16.40;84.30;;;;;;6223235;23;20407;-85
2021/10/10 11:47:29;;;;;;;11.93;9.53;;;16.50;84.90;;;;;;6250602;23;20411;-85
2021/10/10 11:50:00;;;;;;;14.13;9.60;;;16.60;84.00;;;;;;6223778;23;20404;-85
2021/10/10 11:52:47;;;;;;;10.70;9.10;;;16.70;83.50;;;;;;6251334;22;20422;-85
2021/10/10 11:58:01;;;;;;;13.73;9.70;;;16.80;84.30;;;;;;6249933;23;20475;-86
2021/10/10 12:00:34;;;;;;;10.37;9.37;;;16.80;83.30;;;;;;6220894;23;20915;-88
2021/10/10 12:03:10;;;;;;;10.43;8.60;;;16.80;83.40;;;;;;6219708;23;20432;-84
2021/10/10 12:05:40;;;;;;;10.93;9.80;;;16.90;82.20;;;;;;6220904;23;20455;-86
2021/10/10 12:08:16;;;;;;;11.50;8.60;;;16.80;82.30;;;;;;6222575;23;20408;-86
2021/10/10 12:10:45;;;;;;;10.67;8.90;;;16.80;82.60;;;;;;6220850;23;20426;-85
2021/10/10 12:13:12;;;;;;;11.33;8.63;;;16.90;80.70;;;;;;6248062;23;20511;-86
2021/10/10 12:15:40;;;;;;;12.03;8.83;;;16.90;80.80;;;;;;6222337;23;20451;-86
2021/10/10 12:18:14;;;;;;;9.60;8.60;;;16.80;81.50;;;;;;6249238;23;20404;-86
2021/10/10 12:20:42;;;;;;;13.90;8.37;;;17.10;79.60;;;;;;6223542;23;20420;-86
2021/10/10 12:23:10;;;;;;;11.83;7.97;;;16.80;79.30;;;;;;6221336;23;20428;-84
2021/10/10 12:25:39;;;;;;;9.27;8.33;;;16.70;80.40;;;;;;6247547;23;20488;-85
2021/10/10 12:28:10;;;;;;;9.03;7.90;;;16.60;80.80;;;;;;6258440;23;21051;-85
2021/10/10 12:30:57;;;;;;;11.10;7.13;;;17.40;79.30;;;;;;6220717;23;20416;-87
2021/10/10 12:33:29;;;;;;;9.40;7.33;;;17.50;77.80;;;;;;6224964;23;20527;-84
2021/10/10 12:36:05;;;;;;;8.90;7.73;;;17.80;77.30;;;;;;6233104;23;20431;-90
2021/10/10 12:38:42;;;;;;;10.10;8.30;;;18.70;75.30;;;;;;6246109;23;20404;-87
2021/10/10 12:41:21;;;;;;;11.73;8.13;;;19.20;71.80;;;;;;6235942;22;20440;-83
2021/10/10 12:44:03;;;;;;;7.70;7.00;;;19.70;69.30;;;;;;6244659;22;20383;-86
2021/10/10 12:46:51;;;;;;;9.43;8.43;;;20.00;67.30;;;;;;6247204;23;20388;-85
2021/10/10 12:49:31;;;;;;;9.03;7.23;;;20.30;65.60;;;;;;6239672;23;20825;-84
2021/10/10 12:52:00;;;;;;;9.13;7.13;;;20.30;64.70;;;;;;6230746;23;20807;-85
2021/10/10 12:54:29;;;;;;;8.53;7.73;;;20.50;64.30;;;;;;6241134;23;20435;-86
2021/10/10 12:57:12;;;;;;;8.83;7.93;;;20.70;64.20;;;;;;6242986;23;20443;-85
2021/10/10 12:59:49;;;;;;;8.40;7.60;;;20.80;63.00;;;;;;6236459;23;20405;-86
2021/10/10 13:02:16;;;;;;;11.70;8.40;;;20.90;62.00;;;;;;6229944;23;20432;-85
2021/10/10 13:04:43;;;;;;;9.60;8.03;;;20.70;62.10;;;;;;6227902;23;20780;-87
2021/10/10 13:07:14;;;;;;;8.77;7.87;;;20.80;61.20;;;;;;6226801;23;20483;-86
2021/10/10 13:09:41;;;;;;;9.27;7.80;;;20.80;60.80;;;;;;6251739;23;20412;-87
2021/10/10 13:12:08;;;;;;;10.47;8.63;;;20.60;61.90;;;;;;6250101;22;20447;-84
2021/10/10 13:14:35;;;;;;;9.30;7.60;;;20.80;60.80;;;;;;6251134;23;20491;-87
2021/10/10 13:17:02;;;;;;;7.30;5.90;;;20.90;59.40;;;;;;6225511;23;20450;-84
2021/10/10 13:19:29;;;;;;;7.90;7.00;;;21.00;58.00;;;;;;6223992;23;20400;-87